createdAt,value
2022-12-24T00:01:24.781Z,36.60
2022-12-24T00:07:36.051Z,36.60
2022-12-24T00:13:48.913Z,37.50
2022-12-24T00:19:57.086Z,37.90
2022-12-24T00:26:08.779Z,36.40
2022-12-24T00:32:20.836Z,36.60
2022-12-24T00:38:31.724Z,37.00
2022-12-24T00:44:40.799Z,38.10
2022-12-24T00:50:51.542Z,38.00
2022-12-24T00:57:01.009Z,38.50
2022-12-24T01:03:13.515Z,37.00
2022-12-24T01:09:22.171Z,37.10
2022-12-24T01:15:30.910Z,37.20
2022-12-24T01:21:42.601Z,38.30
2022-12-24T01:27:58.383Z,37.90
2022-12-24T01:34:11.304Z,38.00
2022-12-24T01:40:41.218Z,36.80
2022-12-24T01:46:53.516Z,36.30
2022-12-24T01:53:05.776Z,36.20
2022-12-24T01:59:20.242Z,36.10
2022-12-24T02:05:30.227Z,36.50
2022-12-24T02:11:44.118Z,36.10
2022-12-24T02:17:57.045Z,36.00
2022-12-24T02:25:01.364Z,36.10
2022-12-24T02:31:12.528Z,36.30
2022-12-24T02:37:22.071Z,36.10
2022-12-24T02:43:34.358Z,36.10
2022-12-24T02:49:48.492Z,36.10
2022-12-24T02:56:07.646Z,36.20
2022-12-24T03:02:20.580Z,36.30
2022-12-24T03:08:34.301Z,36.50
2022-12-24T03:14:46.534Z,36.20
2022-12-24T03:20:59.687Z,37.00
2022-12-24T03:27:11.032Z,37.60
2022-12-24T03:33:22.497Z,37.30
2022-12-24T03:39:31.300Z,37.20
2022-12-24T03:45:40.790Z,37.50
2022-12-24T03:51:51.562Z,37.80
2022-12-24T03:58:04.528Z,37.90
2022-12-24T04:04:12.085Z,39.00
2022-12-24T04:10:23.254Z,38.20
2022-12-24T04:16:33.603Z,38.30
2022-12-24T04:22:45.528Z,37.90
2022-12-24T04:28:56.819Z,37.90
2022-12-24T04:35:08.062Z,37.50
2022-12-24T04:41:23.963Z,37.50
2022-12-24T04:47:35.054Z,37.50
2022-12-24T04:53:45.216Z,37.40
2022-12-24T04:59:56.153Z,37.30
2022-12-24T05:06:11.007Z,37.00
2022-12-24T05:12:20.106Z,37.00
2022-12-24T05:18:31.257Z,37.50
2022-12-24T05:24:55.147Z,37.20
2022-12-24T05:31:04.383Z,37.40
2022-12-24T05:37:11.801Z,37.00
2022-12-24T05:43:24.408Z,37.40
2022-12-24T05:49:32.487Z,37.10
2022-12-24T05:55:41.871Z,36.90
2022-12-24T06:01:50.162Z,36.70
2022-12-24T06:08:03.362Z,37.10
2022-12-24T06:20:28.987Z,36.00
2022-12-24T06:26:38.750Z,36.10
2022-12-24T06:32:47.972Z,35.90
2022-12-24T06:38:57.935Z,35.50
2022-12-24T06:45:10.720Z,35.30
2022-12-24T06:51:20.921Z,35.40
2022-12-24T06:57:31.919Z,35.70
2022-12-24T07:03:43.389Z,35.60
2022-12-24T07:09:51.533Z,35.00
2022-12-24T07:16:08.246Z,35.10
2022-12-24T07:22:19.145Z,35.30
2022-12-24T07:28:32.654Z,35.50
2022-12-24T07:34:42.596Z,35.50
2022-12-24T07:40:55.090Z,35.00
2022-12-24T07:47:02.565Z,35.10
2022-12-24T07:53:14.296Z,35.40
2022-12-24T07:59:23.375Z,35.50
2022-12-24T08:05:33.997Z,35.00
2022-12-24T08:11:52.015Z,35.00
2022-12-24T08:17:58.763Z,35.10
2022-12-24T08:24:09.719Z,35.20
2022-12-24T08:30:23.582Z,35.20
2022-12-24T08:36:32.806Z,34.70
2022-12-24T08:42:41.907Z,34.90
2022-12-24T08:48:49.237Z,35.00
2022-12-24T09:01:19.053Z,35.20
2022-12-24T09:07:30.029Z,34.70
2022-12-24T09:13:38.212Z,34.90
2022-12-24T09:19:48.972Z,35.00
2022-12-24T09:26:02.659Z,35.20
2022-12-24T09:32:11.757Z,35.20
2022-12-24T09:38:20.013Z,34.70
2022-12-24T09:44:37.580Z,34.80
2022-12-24T09:50:49.085Z,35.00
2022-12-24T09:57:02.556Z,35.10
2022-12-24T10:03:17.554Z,35.00
2022-12-24T10:09:29.949Z,34.50
2022-12-24T10:15:39.404Z,34.70
2022-12-24T10:21:55.030Z,34.70
2022-12-24T10:28:04.927Z,35.00
2022-12-24T10:34:19.528Z,35.00
2022-12-24T10:40:33.244Z,34.30
2022-12-24T10:46:44.495Z,34.60
2022-12-24T10:52:56.124Z,34.70
2022-12-24T10:59:04.454Z,34.80
2022-12-24T11:05:15.177Z,34.80
2022-12-24T11:11:24.289Z,34.30
2022-12-24T11:17:34.189Z,34.40
2022-12-24T11:23:43.190Z,34.60
2022-12-24T11:29:56.895Z,34.60
2022-12-24T11:36:09.973Z,34.70
2022-12-24T11:42:32.248Z,34.20
2022-12-24T11:48:40.356Z,34.30
2022-12-24T11:54:56.204Z,34.40
2022-12-24T12:01:13.482Z,34.50
2022-12-24T12:07:19.771Z,34.10
2022-12-24T12:13:33.855Z,34.30
2022-12-24T12:19:44.894Z,34.30
2022-12-24T12:25:55.941Z,34.50
2022-12-24T12:32:08.739Z,34.40
2022-12-24T12:38:20.691Z,34.50
2022-12-24T12:51:19.785Z,34.70
2022-12-24T12:57:29.246Z,34.70
2022-12-24T13:04:28.492Z,34.80
2022-12-24T13:11:22.207Z,34.30
2022-12-24T13:24:16.299Z,34.70
2022-12-24T13:37:16.625Z,35.00
2022-12-24T13:43:29.904Z,34.40
2022-12-24T13:49:42.009Z,34.40
2022-12-24T13:55:58.680Z,34.80
2022-12-24T14:02:08.014Z,34.90
2022-12-24T14:08:16.475Z,35.00
2022-12-24T14:14:36.606Z,34.40
2022-12-24T14:20:45.542Z,34.30
2022-12-24T14:26:56.199Z,35.60
2022-12-24T14:33:08.001Z,35.40
2022-12-24T14:39:23.828Z,35.60
2022-12-24T14:45:34.605Z,34.90
2022-12-24T14:51:48.044Z,34.30
2022-12-24T14:57:57.299Z,35.00
2022-12-24T15:04:08.337Z,35.90
2022-12-24T15:10:36.661Z,36.10
2022-12-24T15:16:48.864Z,34.60
2022-12-24T15:22:58.821Z,33.80
2022-12-24T15:29:08.740Z,34.10
2022-12-24T15:35:53.712Z,33.90
2022-12-24T15:42:18.523Z,33.80
2022-12-24T15:48:30.510Z,33.40
2022-12-24T15:54:42.267Z,33.10
2022-12-24T16:01:04.967Z,32.50
2022-12-24T16:07:17.019Z,32.40
2022-12-24T16:13:26.160Z,32.70
2022-12-24T16:19:40.107Z,33.10
2022-12-24T16:25:46.024Z,32.10
2022-12-24T16:31:55.476Z,31.50
2022-12-24T16:38:07.343Z,31.10
2022-12-24T16:44:18.772Z,30.80
2022-12-24T16:50:30.912Z,30.50
2022-12-24T16:56:41.187Z,30.30
2022-12-24T17:02:52.502Z,30.70
2022-12-24T17:09:05.553Z,30.30
2022-12-24T17:15:21.090Z,30.00
2022-12-24T17:21:32.428Z,29.80
2022-12-24T17:27:44.216Z,29.70
2022-12-24T17:33:52.888Z,29.50
2022-12-24T17:40:04.007Z,29.80
2022-12-24T17:46:12.065Z,29.90
2022-12-24T17:52:20.621Z,29.80
2022-12-24T17:58:29.088Z,29.40
2022-12-24T18:04:38.455Z,29.30
2022-12-24T18:10:45.887Z,29.10
2022-12-24T18:16:54.763Z,29.30
2022-12-24T18:23:05.134Z,29.70
2022-12-24T18:29:19.156Z,30.00
2022-12-24T18:35:27.509Z,29.50
2022-12-24T18:47:51.641Z,30.90
2022-12-24T18:54:03.598Z,30.60
2022-12-24T19:00:19.314Z,30.00
2022-12-24T19:06:28.695Z,29.60
2022-12-24T19:12:37.700Z,29.60
2022-12-24T19:18:47.091Z,29.90
2022-12-24T19:24:55.813Z,30.10
2022-12-24T19:31:11.098Z,31.10
2022-12-24T19:37:22.097Z,32.20
2022-12-24T19:43:31.314Z,31.20
2022-12-24T19:49:40.460Z,31.10
2022-12-24T19:55:51.691Z,32.10
2022-12-24T20:02:01.077Z,30.10
2022-12-24T20:08:12.934Z,32.10
2022-12-24T20:14:22.282Z,32.70
2022-12-24T20:20:33.449Z,33.90
2022-12-24T20:26:45.079Z,33.00
2022-12-24T20:32:58.019Z,31.10
2022-12-24T20:39:06.333Z,31.60
2022-12-24T20:45:16.530Z,32.40
2022-12-24T20:51:25.407Z,32.50
2022-12-24T20:57:37.474Z,34.00
2022-12-24T21:03:45.175Z,31.80
2022-12-24T21:09:53.952Z,30.90
2022-12-24T21:16:03.900Z,33.30
2022-12-24T21:22:14.330Z,33.30
2022-12-24T21:28:24.153Z,31.20
2022-12-24T21:34:34.140Z,31.20
2022-12-24T21:40:43.635Z,31.40
2022-12-24T21:46:53.627Z,31.20
2022-12-24T21:53:21.625Z,31.60
2022-12-24T21:59:29.046Z,32.00
2022-12-24T22:05:37.868Z,32.10
2022-12-24T22:11:55.332Z,31.10
2022-12-24T22:18:10.771Z,31.40
2022-12-24T22:24:21.034Z,32.00
2022-12-24T22:30:34.584Z,32.10
2022-12-24T22:36:43.820Z,32.10
2022-12-24T22:42:53.795Z,31.50
2022-12-24T22:49:04.910Z,31.70
2022-12-24T22:55:13.527Z,32.00
2022-12-24T23:01:27.208Z,32.10
2022-12-24T23:07:39.459Z,32.10
2022-12-24T23:14:06.452Z,31.40
2022-12-24T23:20:18.286Z,32.10
2022-12-24T23:26:27.308Z,32.90
2022-12-24T23:32:38.439Z,33.10
2022-12-24T23:38:49.718Z,32.80
2022-12-24T23:44:57.337Z,32.50
2022-12-24T23:51:15.481Z,33.00
2022-12-24T23:57:23.869Z,33.20
